sensor_id;sensor_type;location;lat;lon;timestamp;pressure;altitude;pressure_sealevel;temperature;humidity
68669;BME280;55652;49.454;7.798;2022-07-17T08:48:26;99576.22;;;26.44;44.56
68669;BME280;55652;49.454;7.798;2022-07-17T08:51:16;99569.69;;;26.50;44.59
68669;BME280;55652;49.454;7.798;2022-07-17T08:53:45;99577.97;;;26.55;44.38
68669;BME280;55652;49.454;7.798;2022-07-17T08:56:10;99579.13;;;26.64;44.30
68669;BME280;55652;49.454;7.798;2022-07-17T08:58:36;99582.50;;;26.76;46.10
68669;BME280;55652;49.454;7.798;2022-07-17T09:02:32;99579.00;;;26.91;44.76
68669;BME280;55652;49.454;7.798;2022-07-17T09:04:58;99580.72;;;26.97;44.63
68669;BME280;55652;49.454;7.798;2022-07-17T09:07:23;99567.56;;;26.99;44.43
68669;BME280;55652;49.454;7.798;2022-07-17T09:09:50;99564.00;;;27.04;44.61
68669;BME280;55652;49.454;7.798;2022-07-17T09:12:16;99570.31;;;27.05;44.71
68669;BME280;55652;49.454;7.798;2022-07-17T09:14:41;99559.09;;;27.06;44.63
68669;BME280;55652;49.454;7.798;2022-07-17T09:17:10;99545.94;;;27.08;44.76
68669;BME280;55652;49.454;7.798;2022-07-17T09:19:40;99546.75;;;27.09;44.66
68669;BME280;55652;49.454;7.798;2022-07-17T09:22:13;99541.00;;;27.10;44.80
68669;BME280;55652;49.454;7.798;2022-07-17T09:32:20;99528.38;;;27.14;44.89
68669;BME280;55652;49.454;7.798;2022-07-17T09:34:47;99535.28;;;27.17;45.12
68669;BME280;55652;49.454;7.798;2022-07-17T09:37:13;99532.28;;;27.18;45.13
68669;BME280;55652;49.454;7.798;2022-07-17T09:39:39;99521.31;;;27.18;45.09
68669;BME280;55652;49.454;7.798;2022-07-17T09:42:08;99525.44;;;27.21;44.90
68669;BME280;55652;49.454;7.798;2022-07-17T09:44:34;99534.75;;;27.20;45.20
68669;BME280;55652;49.454;7.798;2022-07-17T09:47:01;99518.56;;;27.18;45.06
68669;BME280;55652;49.454;7.798;2022-07-17T09:49:28;99522.13;;;27.19;45.07
68669;BME280;55652;49.454;7.798;2022-07-17T09:51:54;99523.19;;;27.18;45.06
68669;BME280;55652;49.454;7.798;2022-07-17T09:54:23;99525.94;;;27.18;45.25
68669;BME280;55652;49.454;7.798;2022-07-17T09:56:58;99529.78;;;27.17;45.12
68669;BME280;55652;49.454;7.798;2022-07-17T09:59:27;99525.94;;;27.18;45.17
68669;BME280;55652;49.454;7.798;2022-07-17T10:01:55;99539.09;;;27.16;45.55
68669;BME280;55652;49.454;7.798;2022-07-17T10:04:21;99539.09;;;27.16;45.38
68669;BME280;55652;49.454;7.798;2022-07-17T10:06:47;99536.63;;;27.14;45.70
68669;BME280;55652;49.454;7.798;2022-07-17T10:09:12;99536.34;;;27.16;45.55
68669;BME280;55652;49.454;7.798;2022-07-17T10:11:40;99532.75;;;27.15;45.65
68669;BME280;55652;49.454;7.798;2022-07-17T10:14:11;99528.94;;;27.16;45.53
68669;BME280;55652;49.454;7.798;2022-07-17T10:16:39;99529.78;;;27.17;45.52
68669;BME280;55652;49.454;7.798;2022-07-17T10:19:42;99525.94;;;27.18;45.67
68669;BME280;55652;49.454;7.798;2022-07-17T10:22:08;99530.59;;;27.17;45.77
68669;BME280;55652;49.454;7.798;2022-07-17T10:24:48;99537.78;;;27.18;45.58
68669;BME280;55652;49.454;7.798;2022-07-17T10:27:29;99548.75;;;27.18;45.82
68669;BME280;55652;49.454;7.798;2022-07-17T10:30:07;99550.38;;;27.19;45.78
68669;BME280;55652;49.454;7.798;2022-07-17T10:32:34;99546.28;;;27.22;45.87
68669;BME280;55652;49.454;7.798;2022-07-17T10:35:09;99545.47;;;27.21;45.94
68669;BME280;55652;49.454;7.798;2022-07-17T10:40:23;99549.84;;;27.22;46.02
68669;BME280;55652;49.454;7.798;2022-07-17T10:43:01;99535.56;;;27.20;46.21
68669;BME280;55652;49.454;7.798;2022-07-17T10:45:30;99539.16;;;27.21;46.28
68669;BME280;55652;49.454;7.798;2022-07-17T10:50:30;99534.50;;;27.27;46.31
68669;BME280;55652;49.454;7.798;2022-07-17T10:55:40;99531.22;;;27.30;44.28
68669;BME280;55652;49.454;7.798;2022-07-17T10:58:24;99523.53;;;27.27;44.15
68669;BME280;55652;49.454;7.798;2022-07-17T11:03:51;99529.56;;;27.29;44.39
68669;BME280;55652;49.454;7.798;2022-07-17T11:06:20;99535.59;;;27.31;44.61
68669;BME280;55652;49.454;7.798;2022-07-17T11:09:07;99530.66;;;27.28;44.88
68669;BME280;55652;49.454;7.798;2022-07-17T11:11:42;99514.72;;;27.25;44.92
68669;BME280;55652;49.454;7.798;2022-07-17T11:16:35;99525.97;;;27.23;45.06
68669;BME280;55652;49.454;7.798;2022-07-17T11:19:01;99524.31;;;27.22;45.07
68669;BME280;55652;49.454;7.798;2022-07-17T11:21:26;99520.75;;;27.21;45.19
68669;BME280;55652;49.454;7.798;2022-07-17T11:23:54;99519.94;;;27.21;45.05
68669;BME280;55652;49.454;7.798;2022-07-17T11:26:20;99529.00;;;27.21;45.08
68669;BME280;55652;49.454;7.798;2022-07-17T11:28:47;99522.97;;;27.25;45.11
68669;BME280;55652;49.454;7.798;2022-07-17T11:36:23;99527.91;;;27.28;45.17
68669;BME280;55652;49.454;7.798;2022-07-17T11:38:49;99520.25;;;27.35;45.37
68669;BME280;55652;49.454;7.798;2022-07-17T11:41:16;99519.13;;;27.31;45.31
68669;BME280;55652;49.454;7.798;2022-07-17T11:43:42;99521.06;;;27.30;45.11
68669;BME280;55652;49.454;7.798;2022-07-17T11:46:08;99517.50;;;27.30;45.11
68669;BME280;55652;49.454;7.798;2022-07-17T11:48:34;99516.94;;;27.28;45.10
68669;BME280;55652;49.454;7.798;2022-07-17T11:50:59;99518.88;;;27.32;45.13
68669;BME280;55652;49.454;7.798;2022-07-17T11:53:36;99513.94;;;27.34;45.15
68669;BME280;55652;49.454;7.798;2022-07-17T11:56:04;99513.09;;;27.34;45.01
68669;BME280;55652;49.454;7.798;2022-07-17T11:58:41;99513.94;;;27.34;45.30
68669;BME280;55652;49.454;7.798;2022-07-17T12:01:07;99502.13;;;27.39;45.31
68669;BME280;55652;49.454;7.798;2022-07-17T12:03:33;99517.22;;;27.36;45.34
68669;BME280;55652;49.454;7.798;2022-07-17T12:05:58;99520.81;;;27.37;45.65
68669;BME280;55652;49.454;7.798;2022-07-17T12:08:23;99523.56;;;27.37;45.41
68669;BME280;55652;49.454;7.798;2022-07-17T12:11:00;99512.59;;;27.37;45.39
68669;BME280;55652;49.454;7.798;2022-07-17T12:13:41;99525.19;;;27.38;45.68
68669;BME280;55652;49.454;7.798;2022-07-17T12:16:27;99524.63;;;27.36;45.85
68669;BME280;55652;49.454;7.798;2022-07-17T12:18:58;99519.16;;;27.41;45.81
68669;BME280;55652;49.454;7.798;2022-07-17T12:21:24;99520.53;;;27.43;46.00
68669;BME280;55652;49.454;7.798;2022-07-17T12:23:59;99517.53;;;27.40;45.81
68669;BME280;55652;49.454;7.798;2022-07-17T12:26:25;99515.59;;;27.40;45.76
68669;BME280;55652;49.454;7.798;2022-07-17T12:28:50;99505.72;;;27.39;45.89
68669;BME280;55652;49.454;7.798;2022-07-17T12:31:16;99509.81;;;27.42;45.74
68669;BME280;55652;49.454;7.798;2022-07-17T12:33:42;99509.28;;;27.40;45.92
68669;BME280;55652;49.454;7.798;2022-07-17T12:36:08;99504.88;;;27.39;45.94
68669;BME280;55652;49.454;7.798;2022-07-17T12:38:34;99493.91;;;27.39;45.92
68669;BME280;55652;49.454;7.798;2022-07-17T12:40:59;99496.63;;;27.39;45.96
68669;BME280;55652;49.454;7.798;2022-07-17T12:43:25;99490.63;;;27.37;45.95
68669;BME280;55652;49.454;7.798;2022-07-17T12:45:51;99496.94;;;27.42;45.91
68669;BME280;55652;49.454;7.798;2022-07-17T12:48:16;99496.97;;;27.48;46.23
68669;BME280;55652;49.454;7.798;2022-07-17T12:50:42;99488.16;;;27.45;46.29
68669;BME280;55652;49.454;7.798;2022-07-17T12:53:07;99490.34;;;27.43;45.99
68669;BME280;55652;49.454;7.798;2022-07-17T12:55:33;99495.84;;;27.43;46.10
68669;BME280;55652;49.454;7.798;2022-07-17T12:57:59;99496.94;;;27.42;45.94
68669;BME280;55652;49.454;7.798;2022-07-17T13:00:25;99496.66;;;27.44;45.82
68669;BME280;55652;49.454;7.798;2022-07-17T13:02:50;99489.78;;;27.47;45.78
68669;BME280;55652;49.454;7.798;2022-07-17T13:05:16;99490.91;;;27.45;45.75
68669;BME280;55652;49.454;7.798;2022-07-17T13:07:41;99484.03;;;27.48;45.73
68669;BME280;55652;49.454;7.798;2022-07-17T13:10:07;99481.31;;;27.48;45.67
68669;BME280;55652;49.454;7.798;2022-07-17T13:12:32;99485.13;;;27.47;45.92
68669;BME280;55652;49.454;7.798;2022-07-17T13:14:59;99484.59;;;27.50;45.84
68669;BME280;55652;49.454;7.798;2022-07-17T13:17:25;99481.03;;;27.55;46.24
68669;BME280;55652;49.454;7.798;2022-07-17T13:19:50;99482.69;;;27.56;46.36
68669;BME280;55652;49.454;7.798;2022-07-17T13:22:16;99481.84;;;27.55;46.17
68669;BME280;55652;49.454;7.798;2022-07-17T13:24:41;99485.69;;;27.54;45.88
68669;BME280;55652;49.454;7.798;2022-07-17T13:27:07;99483.50;;;27.56;45.86
68669;BME280;55652;49.454;7.798;2022-07-17T13:29:32;99472.53;;;27.56;45.98
68669;BME280;55652;49.454;7.798;2022-07-17T13:31:57;99483.50;;;27.56;45.88
68669;BME280;55652;49.454;7.798;2022-07-17T13:34:23;99485.69;;;27.54;46.01
68669;BME280;55652;49.454;7.798;2022-07-17T13:36:49;99490.63;;;27.57;45.85
68669;BME280;55652;49.454;7.798;2022-07-17T13:39:15;99481.31;;;27.58;45.78
68669;BME280;55652;49.454;7.798;2022-07-17T13:41:41;99474.72;;;27.54;46.09
68669;BME280;55652;49.454;7.798;2022-07-17T13:44:06;99469.78;;;27.56;45.95
68669;BME280;55652;49.454;7.798;2022-07-17T13:46:32;99468.97;;;27.56;46.01
68669;BME280;55652;49.454;7.798;2022-07-17T13:48:58;99474.44;;;27.56;46.00
68669;BME280;55652;49.454;7.798;2022-07-17T13:51:23;99473.59;;;27.55;45.97
68669;BME280;55652;49.454;7.798;2022-07-17T13:53:50;99472.78;;;27.55;45.84
68669;BME280;55652;49.454;7.798;2022-07-17T13:56:15;99482.38;;;27.52;45.91
68669;BME280;55652;49.454;7.798;2022-07-17T13:58:41;99472.53;;;27.56;45.88
68669;BME280;55652;49.454;7.798;2022-07-17T14:01:06;99476.34;;;27.55;45.75
68669;BME280;55652;49.454;7.798;2022-07-17T14:03:32;99475.53;;;27.55;45.74
68669;BME280;55652;49.454;7.798;2022-07-17T14:05:58;99475.53;;;27.55;45.72
68669;BME280;55652;49.454;7.798;2022-07-17T14:08:23;99467.28;;;27.55;45.60
68669;BME280;55652;49.454;7.798;2022-07-17T14:10:49;99473.88;;;27.54;45.74
68669;BME280;55652;49.454;7.798;2022-07-17T14:13:14;99470.59;;;27.52;45.61
68669;BME280;55652;49.454;7.798;2022-07-17T14:15:39;99459.34;;;27.53;45.53
68669;BME280;55652;49.454;7.798;2022-07-17T14:18:04;99461.28;;;27.53;45.52
68669;BME280;55652;49.454;7.798;2022-07-17T14:20:30;99461.28;;;27.53;45.42
68669;BME280;55652;49.454;7.798;2022-07-17T14:22:55;99464.84;;;27.53;45.47
68669;BME280;55652;49.454;7.798;2022-07-17T14:25:20;99455.22;;;27.56;45.38
68669;BME280;55652;49.454;7.798;2022-07-17T14:27:46;99451.09;;;27.53;45.40
68669;BME280;55652;49.454;7.798;2022-07-17T14:30:12;99449.19;;;27.54;45.44
68669;BME280;55652;49.454;7.798;2022-07-17T14:32:37;99450.00;;;27.54;45.33
68669;BME280;55652;49.454;7.798;2022-07-17T14:35:04;99454.13;;;27.52;45.31
68669;BME280;55652;49.454;7.798;2022-07-17T14:37:29;99456.03;;;27.51;45.41
68669;BME280;55652;49.454;7.798;2022-07-17T14:39:55;99456.03;;;27.51;45.23
68669;BME280;55652;49.454;7.798;2022-07-17T14:42:20;99456.03;;;27.56;45.23
68669;BME280;55652;49.454;7.798;2022-07-17T14:44:46;99446.69;;;27.57;45.27
68669;BME280;55652;49.454;7.798;2022-07-17T14:47:11;99448.34;;;27.53;45.30
68669;BME280;55652;49.454;7.798;2022-07-17T14:49:36;99445.63;;;27.58;45.16
68669;BME280;55652;49.454;7.798;2022-07-17T14:52:02;99439.56;;;27.56;45.42
68669;BME280;55652;49.454;7.798;2022-07-17T14:54:28;99441.22;;;27.57;45.41
68669;BME280;55652;49.454;7.798;2022-07-17T14:56:53;99436.25;;;27.54;45.34
68669;BME280;55652;49.454;7.798;2022-07-17T14:59:18;99450.25;;;27.58;45.38
68669;BME280;55652;49.454;7.798;2022-07-17T15:01:44;99443.94;;;27.57;45.11
68669;BME280;55652;49.454;7.798;2022-07-17T15:04:10;99442.03;;;27.58;45.03
68669;BME280;55652;49.454;7.798;2022-07-17T15:06:38;99431.03;;;27.58;44.99
68669;BME280;55652;49.454;7.798;2022-07-17T15:09:04;99431.88;;;27.58;45.11
68669;BME280;55652;49.454;7.798;2022-07-17T15:11:29;99430.22;;;27.57;45.02
68669;BME280;55652;49.454;7.798;2022-07-17T15:13:55;99435.72;;;27.57;45.05
68669;BME280;55652;49.454;7.798;2022-07-17T15:16:20;99421.16;;;27.57;45.04
68669;BME280;55652;49.454;7.798;2022-07-17T15:18:45;99424.47;;;27.64;45.16
68669;BME280;55652;49.454;7.798;2022-07-17T15:21:42;99420.88;;;27.68;45.49
68669;BME280;55652;49.454;7.798;2022-07-17T15:24:07;99423.38;;;27.70;45.13
68669;BME280;55652;49.454;7.798;2022-07-17T15:26:33;99417.63;;;27.72;45.02
68669;BME280;55652;49.454;7.798;2022-07-17T15:28:59;99419.00;;;27.74;44.58
68669;BME280;55652;49.454;7.798;2022-07-17T15:31:25;99413.50;;;27.79;43.11
68669;BME280;55652;49.454;7.798;2022-07-17T15:33:50;99417.91;;;27.91;43.54
68669;BME280;55652;49.454;7.798;2022-07-17T15:36:16;99408.81;;;28.05;42.69
68669;BME280;55652;49.454;7.798;2022-07-17T15:38:55;99414.59;;;28.09;42.60
68669;BME280;55652;49.454;7.798;2022-07-17T15:41:21;99426.09;;;28.16;42.70
68669;BME280;55652;49.454;7.798;2022-07-17T15:43:46;99426.91;;;28.22;42.88
68669;BME280;55652;49.454;7.798;2022-07-17T15:46:12;99424.13;;;28.32;42.50
68669;BME280;55652;49.454;7.798;2022-07-17T15:48:37;99430.75;;;28.36;42.57
68669;BME280;55652;49.454;7.798;2022-07-17T15:51:03;99418.63;;;28.42;42.54
68669;BME280;55652;49.454;7.798;2022-07-17T15:53:28;99417.00;;;28.46;42.59
68669;BME280;55652;49.454;7.798;2022-07-17T15:55:53;99412.00;;;28.53;42.59
68669;BME280;55652;49.454;7.798;2022-07-17T15:58:18;99411.47;;;28.57;42.63
68669;BME280;55652;49.454;7.798;2022-07-17T16:00:44;99409.22;;;28.64;42.61
68669;BME280;55652;49.454;7.798;2022-07-17T16:03:09;99402.63;;;28.65;43.10
68669;BME280;55652;49.454;7.798;2022-07-17T16:05:34;99405.88;;;28.72;43.18
68669;BME280;55652;49.454;7.798;2022-07-17T16:08:00;99399.28;;;28.73;43.86
68669;BME280;55652;49.454;7.798;2022-07-17T16:10:25;99395.97;;;28.76;43.11
